Seznam meteostanic stanic Slunecno.cz
Reklama

Seznam meteostanic a jejich METAR

Vyhledat místa podle abecedy:
A B C D E F G H I J K L M N O P Q R S T U V W X Y Z

Filtrovat:

ID stanice:
a/nebo
Název místa (fulltext):
 
Místo (ID)Naposledy načteno 
Brno - Tuřany (Brno/Tu) 16.06.2019 12:00 UTC Zobrazit data
Místo: Brno - Tuřany
Teplota: 24 °C (pocitová: 24.3 °C)
Vítr: 5 m/s z(e) 320°
Počasí: skoro zataženo
Dohlednost: 30 km
Zákl. oblačnosti: 1/8 1050 m;3/8 1320 m
Vlhkost: 65%
Červená - Opava (Cervena/uL) 16.06.2019 12:00 UTC Zobrazit data
Místo: Červená - Opava
Teplota: 16 °C (pocitová: 13.5 °C)
Vítr: 4 m/s z(e) 340°
Počasí: bouřka
Dohlednost: 13 km
Zákl. oblačnosti: 5/8 30 m;1/8 210 m
Vlhkost: 100%
České Budějovice (C.Budej/po) 16.06.2019 12:00 UTC Zobrazit data
Místo: České Budějovice
Teplota: 18 °C (pocitová: 16.7 °C)
Vítr: 3 m/s z(e) 310°
Počasí: zataženo
Dohlednost: 35 km
Zákl. oblačnosti: 5/8 600 m;8/8 720 m
Vlhkost: 78%
Cheb (Cheb) 16.06.2019 12:00 UTC Zobrazit data
Místo: Cheb
Teplota: 19 °C (pocitová: 19 °C)
Vítr: 1 m/s z(e) 0°
Počasí: skoro zataženo
Dohlednost: 45 km
Zákl. oblačnosti: 2/8 960 m;6/8 2700 m
Vlhkost: 64%
Chotusice - Čáslav (Caslav) 16.06.2019 12:00 UTC Zobrazit data
Místo: Chotusice - Čáslav
Teplota: 20 °C (pocitová: 18.6 °C)
Vítr: 6 m/s z(e) 310°
Počasí: skoro zataženo
Dohlednost: 30 km
Zákl. oblačnosti: 7/8 1140 m
Vlhkost: 69%
Churáňov (Churanov) 16.06.2019 11:00 UTC Zobrazit data
Místo: Churáňov
Teplota: 13 °C (pocitová: 10 °C)
Vítr: 3 m/s z(e) 320°
Počasí: skoro zataženo
Dohlednost: 7 km
Zákl. oblačnosti: 5/8 60 m;4/8 180 m
Vlhkost: 94%
Doksany - Litoměřice (Doksany) 16.06.2019 12:00 UTC Zobrazit data
Místo: Doksany - Litoměřice
Teplota: 22 °C (pocitová: 22.3 °C)
Vítr: 2 m/s z(e) 0°
Počasí: oblačno
Dohlednost: 55 km
Zákl. oblačnosti: 2/8 2700 m;4/8 3300 m
Vlhkost: 47%
Dukovany (Dukovany) 16.06.2019 12:00 UTC Zobrazit data
Místo: Dukovany
Teplota: 23 °C (pocitová: 22.6 °C)
Vítr: 8 m/s z(e) 350°
Počasí: skoro zataženo
Dohlednost: 25 km
Zákl. oblačnosti: 4/8 900 m;6/8 1800 m
Vlhkost: 65%
Holešov (Holesov) 16.06.2019 12:00 UTC Zobrazit data
Místo: Holešov
Teplota: 22 °C (pocitová: 22 °C)
Vítr: 3 m/s z(e) 310°
Počasí: skoro zataženo
Dohlednost: 20 km
Zákl. oblačnosti: 7/8 1200 m
Vlhkost: 78%
Kadaň - Tušimice (Tusimice) 16.06.2019 12:00 UTC Zobrazit data
Místo: Kadaň - Tušimice
Teplota: 21 °C (pocitová: 21.5 °C)
Vítr: 1 m/s z(e) 0°
Počasí: skoro zataženo
Dohlednost: 35 km
Zákl. oblačnosti: 5/8 1380 m
Vlhkost: 64%
Karlovy Vary (K.Vary) 16.06.2019 12:00 UTC Zobrazit data
Místo: Karlovy Vary
Teplota: 18 °C (pocitová: 17.2 °C)
Vítr: 2 m/s z(e) 230°
Počasí: skoro zataženo
Dohlednost: 50 km
Zákl. oblačnosti: 1/8 810 m;6/8 1800 m
Vlhkost: 64%
Kocelovice (Kocelovice) 16.06.2019 12:00 UTC Zobrazit data
Místo: Kocelovice
Teplota: 17 °C (pocitová: 15.9 °C)
Vítr: 2 m/s z(e) 0°
Počasí: skoro zataženo
Dohlednost: 27 km
Zákl. oblačnosti: 4/8 420 m;7/8 870 m
Vlhkost: 83%
Kopisty (Kopisty) 16.06.2019 12:00 UTC Zobrazit data
Místo: Kopisty
Teplota: 22 °C (pocitová: 26.8 °C)
Vítr: 0 m/s z(e) 0°
Počasí: skoro zataženo
Dohlednost: 35 km
Zákl. oblačnosti: 3/8 1290 m;3/8 3600 m
Vlhkost: 57%
Kostelní Myslová (K.Myslova) 16.06.2019 12:00 UTC Zobrazit data
Místo: Kostelní Myslová
Teplota: 18 °C (pocitová: 17.2 °C)
Vítr: 2 m/s z(e) 0°
Počasí: skoro zataženo
Dohlednost: 30 km
Zákl. oblačnosti: 7/8 420 m
Vlhkost: 78%
Křešín - Kramolín (Kramolin) 16.06.2019 12:00 UTC Zobrazit data
Místo: Křešín - Kramolín
Teplota: 19 °C (pocitová: 17.4 °C)
Vítr: 5 m/s z(e) 320°
Počasí: skoro zataženo
Dohlednost: 35 km
Zákl. oblačnosti: 1/8 600 m;7/8 900 m
Vlhkost: 68%
Kuchařovice - Znojmo (Kucharovic) 16.06.2019 12:00 UTC Zobrazit data
Místo: Kuchařovice - Znojmo
Teplota: 24 °C (pocitová: 24.3 °C)
Vítr: 6 m/s z(e) 330°
Počasí: skoro zataženo
Dohlednost: 35 km
Zákl. oblačnosti: 2/8 780 m;3/8 1500 m
Vlhkost: 65%
Liberec (Liberec) 16.06.2019 12:00 UTC Zobrazit data
Místo: Liberec
Teplota: 18 °C (pocitová: 16.3 °C)
Vítr: 4 m/s z(e) 300°
Počasí: skoro zataženo
Dohlednost: 35 km
Zákl. oblačnosti: 2/8 930 m;3/8 1500 m
Vlhkost: 68%
Luká (Luka) 16.06.2019 12:00 UTC Zobrazit data
Místo: Luká
Teplota: 18 °C (pocitová: 16 °C)
Vítr: 5 m/s z(e) 330°
Počasí: skoro zataženo
Dohlednost: 13 km
Zákl. oblačnosti: 2/8 210 m;7/8 630 m
Vlhkost: 88%
Lysá Hora (Lysa Hora) 16.06.2019 11:00 UTC Zobrazit data
Místo: Lysá Hora
Teplota: 16 °C (pocitová: 14.6 °C)
Vítr: 2 m/s z(e) 0°
Počasí: skoro zataženo
Dohlednost: 11 km
Zákl. oblačnosti: 3/8 180 m;6/8 2400 m
Vlhkost: 88%
Milešovka (Milesovka) 16.06.2019 12:00 UTC Zobrazit data
Místo: Milešovka
Teplota: 19 °C (pocitová: 19 °C)
Vítr: 1 m/s z(e) 350°
Počasí: skoro zataženo
Dohlednost: 55 km
Zákl. oblačnosti: 1/8 600 m
Vlhkost: 68%
Mošnov (Ostrava/Mo) 16.06.2019 12:00 UTC Zobrazit data
Místo: Mošnov
Teplota: 23 °C (pocitová: 22.9 °C)
Vítr: 5 m/s z(e) 340°
Počasí: skoro zataženo
Dohlednost: 15 km
Zákl. oblačnosti: 3/8 690 m
Vlhkost: 78%
Náměšť nad Oslavou (Namest n/O) 16.06.2019 12:00 UTC Zobrazit data
Místo: Náměšť nad Oslavou
Teplota: 20 °C (pocitová: 18.6 °C)
Vítr: 6 m/s z(e) 310°
Počasí: skoro zataženo
Dohlednost: 25 km
Zákl. oblačnosti: 2/8 450 m;4/8 1320 m
Vlhkost: 73%
Pardubice (Pardubice) 16.06.2019 12:00 UTC Zobrazit data
Místo: Pardubice
Teplota: 20 °C (pocitová: 18.8 °C)
Vítr: 5 m/s z(e) 270°
Počasí: zataženo
Dohlednost: 20 km
Zákl. oblačnosti: 3/8 690 m;8/8 1500 m
Vlhkost: 69%
Pec pod Sněžkou (Pec p.Snez) 16.06.2019 12:00 UTC Zobrazit data
Místo: Pec pod Sněžkou
Teplota: 16 °C (pocitová: 15.3 °C)
Vítr: 1 m/s z(e) 0°
Počasí: zataženo
Dohlednost: 20 km
Zákl. oblačnosti: 8/8 900 m
Vlhkost: 63%
Plzeň město - Mikulka (Plzen/Miku) 16.06.2019 12:00 UTC Zobrazit data
Místo: Plzeň město - Mikulka
Teplota: 20 °C (pocitová: 19.8 °C)
Vítr: 2 m/s z(e) 0°
Počasí: skoro zataženo
Dohlednost: 45 km
Zákl. oblačnosti: 2/8 990 m;6/8 1500 m
Vlhkost: 60%
Polom (Polom) 16.06.2019 12:00 UTC Zobrazit data
Místo: Polom
Teplota: 17 °C (pocitová: 15.9 °C)
Vítr: 2 m/s z(e) 30°
Počasí: skoro zataženo
Dohlednost: 60 km
Zákl. oblačnosti: 2/8 1230 m;6/8 1500 m
Vlhkost: 77%
Praha - Karlov (Praha/Kar) 16.06.2019 12:00 UTC Zobrazit data
Místo: Praha - Karlov
Teplota: 22 °C (pocitová: 22.3 °C)
Vítr: 2 m/s z(e) 350°
Počasí: skoro zataženo
Dohlednost: 55 km
Zákl. oblačnosti: 1/8 990 m;5/8 6000 m
Vlhkost: 50%
Praha - Kbely (Praha/Kbe) 16.06.2019 12:00 UTC Zobrazit data
Místo: Praha - Kbely
Teplota: 20 °C (pocitová: 19.3 °C)
Vítr: 3 m/s z(e) 320°
Počasí: oblačno
Dohlednost: 25 km
Zákl. oblačnosti: 4/8 2100 m
Vlhkost: 64%
Praha - Libuš (Praha/Lib) 16.06.2019 12:00 UTC Zobrazit data
Místo: Praha - Libuš
Teplota: 21 °C (pocitová: 21 °C)
Vítr: 2 m/s z(e) 0°
Počasí: skoro zataženo
Dohlednost: 40 km
Zákl. oblačnosti: 2/8 900 m;3/8 1500 m
Vlhkost: 60%
Praha - Ruzyně (Praha/Ru) 16.06.2019 12:00 UTC Zobrazit data
Místo: Praha - Ruzyně
Teplota: 20 °C (pocitová: 19 °C)
Vítr: 4 m/s z(e) 330°
Počasí: skoro zataženo
Dohlednost: 60 km
Zákl. oblačnosti: 1/8 990 m;3/8 1500 m
Vlhkost: 60%
Přibyslav (Pribyslav) 16.06.2019 12:00 UTC Zobrazit data
Místo: Přibyslav
Teplota: 18 °C (pocitová: 16 °C)
Vítr: 5 m/s z(e) 310°
Počasí: zataženo
Dohlednost: 50 km
Zákl. oblačnosti: 8/8 420 m
Vlhkost: 78%
Přimda (Primda) 16.06.2019 12:00 UTC Zobrazit data
Místo: Přimda
Teplota: 16 °C (pocitová: 14.6 °C)
Vítr: 2 m/s z(e) 90°
Počasí: skoro zataženo
Dohlednost: 75 km
Zákl. oblačnosti: 3/8 600 m;5/8 1140 m
Vlhkost: 77%
Šerák (Serak) 16.06.2019 02:00 UTC Zobrazit data
Místo: Šerák
Teplota: 13 °C (pocitová: 9 °C)
Vítr: 5 m/s z(e) 340°
Počasí: zataženo
Dohlednost: 30 km
Zákl. oblačnosti: 5/8 300 m;8/8 9000 m
Vlhkost: 94%
Svratouch (Svratouch) 16.06.2019 12:00 UTC Zobrazit data
Místo: Svratouch
Teplota: 16 °C (pocitová: 14 °C)
Vítr: 3 m/s z(e) 350°
Počasí: zataženo
Dohlednost: 8 km
Zákl. oblačnosti: 8/8 30 m
Vlhkost: 94%
Temelín (Temelin) 16.06.2019 12:00 UTC Zobrazit data
Místo: Temelín
Teplota: 18 °C (pocitová: 16.3 °C)
Vítr: 4 m/s z(e) 330°
Počasí: skoro zataženo
Dohlednost: 40 km
Zákl. oblačnosti: 4/8 510 m;7/8 1200 m
Vlhkost: 78%
Ústí nad Labem - Kočkov (Usti n/L) 16.06.2019 12:00 UTC Zobrazit data
Místo: Ústí nad Labem - Kočkov
Teplota: 20 °C (pocitová: 19.3 °C)
Vítr: 3 m/s z(e) 350°
Počasí: oblačno
Dohlednost: 75 km
Zákl. oblačnosti: 1/8 1290 m;3/8 4200 m
Vlhkost: 53%
Ústí nad Orlicí (Usti n/O) 16.06.2019 12:00 UTC Zobrazit data
Místo: Ústí nad Orlicí
Teplota: 18 °C (pocitová: 16.3 °C)
Vítr: 4 m/s z(e) 290°
Počasí: zataženo
Dohlednost: 17 km
Zákl. oblačnosti: 8/8 270 m
Vlhkost: 88%
Aalborg (EKYT) 16.06.2019 11:50 UTC Zobrazit METAR
EKYT 161150Z AUTO 24015KT 9999 FEW200/// 20/11 Q1017
Aarhus (EKAH) 12.05.2019 05:50 UTC Zobrazit METAR
EKAH 120550Z 29013KT CAVOK 08/05 Q1024
Abu Dhabi (OMAA) 16.06.2019 12:00 UTC Zobrazit METAR
OMAA 161200Z 33014KT CAVOK 40/25 Q0997 NOSIG
Abuja (DNAA) 16.06.2019 12:00 UTC Zobrazit METAR
DNAA 161200Z 27006KT 220V310 9999 SCT012 29/22 Q1016 NOSIG
Accra (DGAA) 16.06.2019 12:00 UTC Zobrazit METAR
DGAA 161200Z 19011KT 9999 SCT019 29/23 Q1015 NOSIG
Addis Abeba (HAAB) 16.06.2019 12:00 UTC Zobrazit METAR
HAAB 161200Z 14006KT 9999 BKN025 23/11 Q1024
Agana (PGUM) 16.06.2019 11:54 UTC Zobrazit METAR
PGUM 161154Z 08007KT 10SM FEW022 28/23 A2992 RMK AO2 RAE02 SLP124 P0000 60000 T02830228 10328 20272 51018
Ahe Island (NTHE) Zatím nenačteno  
Akureyri (BIAR) 16.06.2019 12:00 UTC Zobrazit METAR
BIAR 161200Z 36012KT 9999 FEW050 13/08 Q1014
Almaty (UAAA) Zatím nenačteno  
Amman (OJAM) 16.06.2019 12:00 UTC Zobrazit METAR
OJAM 161200Z 27014KT 6000 SCT030 30/10 Q1012 NOSIG
Amsterdam (EHAM) 16.06.2019 11:55 UTC Zobrazit METAR
EHAM 161155Z 25013KT 210V300 9999 FEW025 20/13 Q1019 NOSIG
Antananarivo (FMMI) 16.06.2019 12:00 UTC Zobrazit METAR
FMMI 161200Z 15011KT 120V180 9999 SCT023 20/10 Q1024 NOSIG
1 2 3 ... 9 Další
Reklama

Počasí na Váš email

Emaily jsou bez reklamy a bez spamu



Odhlásit newsletter

Reklama


Lunární kalendář

  • zítra
  • 25.06.
  • 02.07.
  • 09.07.



Reklama


Reklama
Povinné ručení
Reklama



Reklama